Time;durP1;ratioP1;P1;durP2;ratioP2;P2;SDS_P1;SDS_P2;PMS_P1;PMS_P2;Temp;Humidity;BMP_temperature;BMP_pressure;BME280_temperature;BME280_humidity;BME280_pressure;Samples;Min_cycle;Max_cycle;Signal;HPM_P1;HPM_P2
2021/07/12 00:01:55;;;;;;;9.18;7.47;;;;;;;20.10;67.38;99495.66;5052434;28;20136;-67
2021/07/12 00:04:21;;;;;;;8.15;6.80;;;;;;;20.07;66.64;99488.16;5053654;28;20055;-65
2021/07/12 00:06:47;;;;;;;10.32;6.95;;;;;;;20.05;67.20;99495.72;5035654;28;20041;-67
2021/07/12 00:09:13;;;;;;;8.40;6.43;;;;;;;20.00;67.44;99487.75;5019259;28;20051;-68
2021/07/12 00:11:39;;;;;;;11.15;6.95;;;;;;;19.95;68.29;99489.44;5035355;28;20144;-66
2021/07/12 00:14:05;;;;;;;9.95;7.20;;;;;;;19.90;68.55;99488.75;5052284;28;20036;-66
2021/07/12 00:16:31;;;;;;;9.43;7.65;;;;;;;19.85;68.97;99486.91;5019095;28;20052;-68
2021/07/12 00:18:58;;;;;;;14.35;7.63;;;;;;;19.79;69.38;99490.81;5053578;28;20041;-66
2021/07/12 00:21:24;;;;;;;13.65;7.90;;;;;;;19.77;69.63;99497.59;5034994;28;20040;-67
2021/07/12 00:23:49;;;;;;;12.27;7.25;;;;;;;19.69;69.45;99488.31;5051959;28;20406;-67
2021/07/12 00:26:17;;;;;;;11.25;7.22;;;;;;;19.63;68.94;99489.44;5052272;28;20139;-64
2021/07/12 00:28:43;;;;;;;10.10;7.20;;;;;;;19.64;69.64;99493.72;5051916;28;20037;-67
2021/07/12 00:31:09;;;;;;;9.43;6.60;;;;;;;19.62;67.27;99494.03;5052097;28;20106;-67
2021/07/12 00:33:35;;;;;;;7.75;5.75;;;;;;;19.69;66.74;99497.16;5053244;28;20418;-67
2021/07/12 00:36:03;;;;;;;9.52;6.05;;;;;;;19.54;65.76;99465.13;5052045;28;20106;-66
2021/07/12 00:38:29;;;;;;;6.88;5.80;;;;;;;19.70;65.55;99496.06;5051619;28;20045;-66
2021/07/12 00:40:55;;;;;;;7.07;5.60;;;;;;;19.73;65.79;99495.47;5035415;28;20040;-67
2021/07/12 00:43:24;;;;;;;7.32;6.07;;;;;;;19.71;65.89;99505.75;5051611;28;20045;-66
2021/07/12 00:45:51;;;;;;;8.38;6.13;;;;;;;19.69;65.98;99504.44;5051751;28;20056;-67
2021/07/12 00:48:18;;;;;;;8.30;6.18;;;;;;;19.70;65.83;99504.13;5002375;28;20060;-65
2021/07/12 00:50:49;;;;;;;7.35;5.50;;;;;;;19.69;65.51;99504.44;5051656;28;20051;-66
2021/07/12 00:53:15;;;;;;;10.00;6.45;;;;;;;19.70;66.03;99506.81;5051312;28;20578;-67
2021/07/12 00:55:48;;;;;;;9.95;7.00;;;;;;;19.66;66.63;99505.03;5035188;28;20140;-67
2021/07/12 00:58:20;;;;;;;7.20;6.07;;;;;;;19.63;66.00;99511.75;5034832;28;20072;-66
2021/07/12 01:00:53;;;;;;;7.82;5.72;;;;;;;19.61;65.49;99508.56;5051621;28;20084;-66
2021/07/12 01:03:19;;;;;;;9.75;6.22;;;;;;;19.63;66.59;99519.03;5052442;28;20049;-67
2021/07/12 01:05:48;;;;;;;7.10;5.97;;;;;;;19.59;65.61;99507.25;5051477;28;20049;-67
2021/07/12 01:08:14;;;;;;;8.45;6.25;;;;;;;19.70;65.89;99517.56;5034535;28;20060;-64
2021/07/12 01:11:32;;;;;;;9.30;5.90;;;;;;;19.80;66.97;99516.63;5034442;28;20057;-68
2021/07/12 01:14:39;;;;;;;8.57;6.20;;;;;;;19.92;65.97;99516.94;5034269;28;20037;-66
2021/07/12 01:18:03;;;;;;;8.95;6.20;;;;;;;20.22;64.97;99522.88;4993818;28;20085;-67
2021/07/12 01:21:04;;;;;;;7.05;5.70;;;;;;;20.39;64.25;99522.28;4993785;28;20626;-67
2021/07/12 01:23:57;;;;;;;12.00;6.45;;;;;;;20.54;64.48;99526.59;5041179;28;20060;-66
2021/07/12 01:26:42;;;;;;;7.22;5.97;;;;;;;20.67;64.04;99527.69;5050901;28;20059;-66
2021/07/12 01:29:37;;;;;;;6.90;6.18;;;;;;;20.83;63.96;99523.59;5050681;28;20053;-68
2021/07/12 01:32:32;;;;;;;10.07;6.80;;;;;;;20.96;63.81;99524.66;5033962;28;20041;-68
2021/07/12 01:35:05;;;;;;;8.38;6.28;;;;;;;21.13;63.06;99524.81;5050621;28;20086;-67
2021/07/12 01:38:07;;;;;;;6.18;5.43;;;;;;;21.19;62.49;99515.50;5050724;28;20086;-67
2021/07/12 01:40:57;;;;;;;7.47;5.85;;;;;;;21.50;62.07;99528.28;5024630;28;20063;-67
2021/07/12 01:43:47;;;;;;;7.05;6.22;;;;;;;21.67;61.90;99536.50;5034113;28;20560;-67
2021/07/12 01:46:21;;;;;;;6.97;6.22;;;;;;;21.83;61.71;99536.94;5034039;28;20048;-67
2021/07/12 01:49:12;;;;;;;6.75;5.85;;;;;;;22.00;62.20;99537.03;5033980;28;20041;-67
2021/07/12 01:51:46;;;;;;;8.93;6.90;;;;;;;22.12;61.51;99533.75;5050623;28;20048;-67
2021/07/12 01:54:22;;;;;;;9.77;7.05;;;;;;;22.29;61.71;99537.66;5033904;28;20051;-67
2021/07/12 01:56:57;;;;;;;8.60;7.07;;;;;;;22.40;61.58;99541.69;5001090;28;20433;-67
2021/07/12 01:59:36;;;;;;;9.98;6.28;;;;;;;22.57;60.91;99544.44;5034238;28;20127;-67
2021/07/12 02:02:07;;;;;;;11.35;7.60;;;;;;;22.64;61.23;99544.78;5050264;28;20072;-67
2021/07/12 02:04:41;;;;;;;8.30;6.88;;;;;;;22.76;60.72;99546.06;5034723;28;20041;-66
2021/07/12 02:07:15;;;;;;;11.38;7.00;;;;;;;22.96;59.92;99550.91;5017375;28;20490;-68
2021/07/12 02:09:42;;;;;;;7.35;6.65;;;;;;;23.06;59.52;99547.09;5017390;28;20399;-67
2021/07/12 02:12:10;;;;;;;9.82;7.38;;;;;;;23.16;59.28;99548.72;5050249;28;20067;-68
2021/07/12 02:14:44;;;;;;;8.88;6.60;;;;;;;23.23;57.66;99555.25;5034678;28;20063;-66
2021/07/12 02:17:12;;;;;;;8.27;6.65;;;;;;;23.44;57.14;99554.59;5016896;28;20041;-66
2021/07/12 02:19:40;;;;;;;7.75;6.35;;;;;;;23.72;56.41;99555.91;4985561;28;20052;-67
2021/07/12 02:22:09;;;;;;;;;;;;;;;24.13;55.38;99557.25;5050688;28;20047;-70
2021/07/12 02:24:55;;;;;;;8.95;6.13;;;;;;;24.36;54.18;99552.38;5033565;28;19974;-71
2021/07/12 02:27:22;;;;;;;12.10;6.75;;;;;;;24.69;53.53;99544.44;5016934;28;20041;-71
2021/07/12 02:29:49;;;;;;;7.65;5.80;;;;;;;25.11;51.78;99540.97;5016901;28;20160;-71
2021/07/12 02:32:17;;;;;;;8.50;6.30;;;;;;;25.48;50.66;99541.97;5066637;28;20041;-70
2021/07/12 02:34:45;;;;;;;6.97;6.28;;;;;;;25.74;50.22;99551.81;5049843;28;20590;-71
2021/07/12 02:37:13;;;;;;;7.72;5.90;;;;;;;25.90;49.28;99552.78;5033189;28;20449;-70
2021/07/12 02:39:40;;;;;;;10.13;6.10;;;;;;;26.20;48.68;99561.53;5033281;28;20126;-71
2021/07/12 02:42:10;;;;;;;9.65;5.78;;;;;;;26.52;48.00;99558.31;5033283;28;20414;-71
2021/07/12 02:44:39;;;;;;;7.32;6.32;;;;;;;26.77;46.95;99564.53;5018447;28;20084;-71
2021/07/12 02:47:07;;;;;;;;;;;;;;;27.06;46.04;99571.63;5038284;28;20136;-70
2021/07/12 02:49:36;;;;;;;8.52;5.75;;;;;;;27.28;46.08;99560.28;5053939;28;19929;-70
2021/07/12 02:52:10;;;;;;;6.35;5.75;;;;;;;27.58;45.73;99573.56;5037182;28;20049;-71
2021/07/12 02:54:41;;;;;;;8.52;5.90;;;;;;;27.76;45.40;99569.38;5037321;28;20568;-70
2021/07/12 02:57:10;;;;;;;9.25;5.72;;;;;;;27.88;44.50;99573.22;5020896;28;20135;-71
2021/07/12 02:59:37;;;;;;;7.38;5.50;;;;;;;27.91;44.51;99577.97;5053649;28;20454;-71
2021/07/12 03:02:03;;;;;;;8.70;5.93;;;;;;;27.74;44.74;99570.91;5053615;28;20119;-71
2021/07/12 03:04:29;;;;;;;7.80;5.80;;;;;;;27.83;44.54;99577.78;5070043;28;20045;-71
2021/07/12 03:06:59;;;;;;;7.93;5.85;;;;;;;28.01;44.16;99575.53;5053770;28;20045;-71
2021/07/12 03:09:35;;;;;;;7.45;5.47;;;;;;;28.34;43.61;99574.41;5053479;28;20136;-70
2021/07/12 03:12:26;;;;;;;5.80;5.30;;;;;;;28.35;43.22;99575.97;5036770;28;20114;-71
2021/07/12 03:15:06;;;;;;;7.38;5.95;;;;;;;28.47;43.38;99575.94;5053548;28;20076;-70
2021/07/12 03:17:39;;;;;;;9.73;5.93;;;;;;;28.58;43.08;99576.19;5053498;28;20037;-70
2021/07/12 03:20:08;;;;;;;6.38;5.43;;;;;;;28.75;43.17;99581.25;5053282;28;20055;-70
2021/07/12 03:22:34;;;;;;;6.68;5.80;;;;;;;29.03;42.08;99580.34;5053145;28;20040;-70
2021/07/12 03:25:03;;;;;;;9.15;5.60;;;;;;;29.07;41.55;99583.97;5020116;28;20055;-70
2021/07/12 03:27:31;;;;;;;8.48;5.97;;;;;;;28.97;42.01;99576.28;5053116;28;20048;-71
2021/07/12 03:30:01;;;;;;;7.65;5.50;;;;;;;29.17;42.10;99585.31;5036673;28;20056;-71
2021/07/12 03:32:30;;;;;;;6.88;5.95;;;;;;;29.29;41.61;99579.72;5036886;28;20525;-70
2021/07/12 03:35:01;;;;;;;7.43;5.65;;;;;;;29.48;41.28;99581.69;5036949;28;20052;-70
2021/07/12 03:37:27;;;;;;;6.72;5.45;;;;;;;29.60;40.86;99578.81;5036911;28;20518;-71
2021/07/12 03:39:54;;;;;;;6.53;5.40;;;;;;;29.64;39.93;99579.69;5040253;28;20045;-70
2021/07/12 03:42:21;;;;;;;6.68;5.10;;;;;;;29.69;39.75;99581.34;5020817;28;20037;-70
2021/07/12 03:44:53;;;;;;;7.45;5.60;;;;;;;29.22;39.27;99574.13;5052750;28;20157;-70
2021/07/12 03:47:39;;;;;;;7.65;4.80;;;;;;;29.20;39.36;99571.75;5052685;28;20557;-69
2021/07/12 03:50:16;;;;;;;6.22;5.32;;;;;;;29.31;39.04;99565.72;5053871;28;20049;-72
2021/07/12 03:52:50;;;;;;;5.70;5.07;;;;;;;29.17;38.53;99555.31;5052475;28;20053;-70
2021/07/12 03:55:20;;;;;;;7.13;5.18;;;;;;;29.06;39.38;99557.81;5035766;28;20051;-71
2021/07/12 03:57:46;;;;;;;9.23;4.90;;;;;;;29.27;39.26;99562.94;5051695;28;20075;-70
2021/07/12 04:00:18;;;;;;;6.53;5.00;;;;;;;29.25;39.35;99569.91;5035818;28;20049;-70
2021/07/12 04:02:45;;;;;;;5.70;4.63;;;;;;;29.14;39.38;99559.53;5068949;28;20045;-69
2021/07/12 04:05:12;;;;;;;7.63;5.20;;;;;;;28.89;40.34;99563.66;5052248;28;20063;-70
2021/07/12 04:07:39;;;;;;;6.40;5.13;;;;;;;28.54;40.82;99564.41;5035510;28;20044;-70
2021/07/12 04:10:06;;;;;;;6.78;5.03;;;;;;;28.37;41.27;99568.25;5035752;28;20052;-72
2021/07/12 04:12:33;;;;;;;8.35;5.35;;;;;;;28.26;41.32;99564.47;5053214;28;20057;-72
2021/07/12 04:15:01;;;;;;;7.30;5.20;;;;;;;28.21;41.70;99562.03;5035469;28;20537;-71
2021/07/12 04:17:26;;;;;;;8.15;4.93;;;;;;;28.24;41.50;99559.38;5018925;28;20045;-71
2021/07/12 04:19:52;;;;;;;6.47;4.90;;;;;;;28.58;40.79;99557.09;5053430;28;20049;-70
2021/07/12 04:22:19;;;;;;;6.57;5.43;;;;;;;28.61;41.13;99555.59;5053211;28;20529;-70
2021/07/12 04:24:44;;;;;;;5.55;4.93;;;;;;;28.63;40.55;99564.22;5052038;28;20053;-71
2021/07/12 04:27:10;;;;;;;6.88;5.07;;;;;;;28.66;40.63;99560.78;5053477;28;20124;-71
2021/07/12 04:29:36;;;;;;;6.45;4.60;;;;;;;28.80;40.76;99563.84;5051906;28;20048;-72
2021/07/12 04:32:03;;;;;;;6.78;4.82;;;;;;;28.93;40.35;99553.59;5052920;28;20055;-71
2021/07/12 04:34:29;;;;;;;6.07;4.53;;;;;;;28.99;39.70;99554.91;5051728;28;20068;-71
2021/07/12 04:36:55;;;;;;;15.18;5.43;;;;;;;29.09;39.70;99559.84;5051907;28;20070;-70
2021/07/12 04:39:22;;;;;;;5.85;4.43;;;;;;;29.37;39.36;99554.16;5051463;28;20041;-70
2021/07/12 04:41:49;;;;;;;7.70;4.88;;;;;;;29.42;39.21;99553.88;5051636;28;20048;-70
2021/07/12 04:44:15;;;;;;;11.15;4.82;;;;;;;29.46;39.80;99555.88;5034818;28;20062;-71
2021/07/12 04:46:41;;;;;;;7.07;4.85;;;;;;;29.33;39.42;99550.59;5051514;28;20036;-71
2021/07/12 04:49:06;;;;;;;9.00;4.90;;;;;;;29.50;39.14;99554.00;5035172;28;22132;-71
2021/07/12 04:51:32;;;;;;;6.40;5.03;;;;;;;29.33;39.71;99550.59;5034651;28;20633;-71
2021/07/12 04:53:59;;;;;;;6.90;4.88;;;;;;;29.35;39.57;99553.72;5050942;28;20169;-75
2021/07/12 04:56:25;;;;;;;6.25;4.72;;;;;;;29.60;39.64;99548.75;5050548;28;20047;-71
2021/07/12 04:58:51;;;;;;;9.65;4.70;;;;;;;29.86;39.48;99550.84;5018204;28;20033;-69
2021/07/12 05:01:18;;;;;;;6.68;5.03;;;;;;;29.85;38.46;99549.25;5051174;28;20048;-70
2021/07/12 05:03:44;;;;;;;5.72;4.60;;;;;;;29.84;38.82;99553.13;5051068;28;20051;-72
2021/07/12 05:06:11;;;;;;;7.38;4.93;;;;;;;30.01;38.33;99551.88;5034648;28;20520;-75
2021/07/12 05:08:37;;;;;;;6.85;4.90;;;;;;;29.87;39.25;99551.63;5051282;28;20041;-75
2021/07/12 05:11:03;;;;;;;7.88;5.03;;;;;;;29.86;39.46;99556.31;5036188;28;20068;-69
2021/07/12 05:13:29;;;;;;;5.72;4.75;;;;;;;29.79;39.45;99556.16;5051892;28;20052;-70
2021/07/12 05:15:57;;;;;;;8.23;4.85;;;;;;;29.57;39.98;99556.91;5017752;28;20041;-68
2021/07/12 05:18:37;;;;;;;6.43;4.70;;;;;;;29.39;39.39;99554.59;5050165;28;20071;-70
2021/07/12 05:21:07;;;;;;;9.20;4.63;;;;;;;29.16;40.14;99559.19;5018261;28;20048;-70
2021/07/12 05:23:33;;;;;;;5.18;4.65;;;;;;;28.97;40.93;99555.25;5049626;28;20111;-71
2021/07/12 05:25:59;;;;;;;5.32;4.70;;;;;;;28.90;40.29;99557.03;5032698;28;20087;-71
2021/07/12 05:28:25;;;;;;;6.32;5.43;;;;;;;28.57;41.19;99550.06;5034123;28;20068;-70
2021/07/12 05:30:53;;;;;;;9.68;5.32;;;;;;;28.52;41.21;99558.50;5034168;28;20475;-70
2021/07/12 05:33:19;;;;;;;6.22;4.20;;;;;;;28.34;40.03;99557.28;5051919;28;20080;-70
2021/07/12 05:35:45;;;;;;;7.10;5.10;;;;;;;28.21;42.17;99565.53;5034157;28;20076;-70
2021/07/12 05:38:10;;;;;;;7.78;4.75;;;;;;;28.06;43.27;99558.13;5033987;28;20045;-70
2021/07/12 05:40:37;;;;;;;7.70;4.93;;;;;;;28.06;42.26;99552.66;5052149;28;20586;-71
2021/07/12 05:43:03;;;;;;;5.45;4.88;;;;;;;27.87;42.04;99560.75;5050328;28;20110;-71
2021/07/12 05:45:29;;;;;;;6.68;4.97;;;;;;;27.75;41.96;99551.47;5034085;28;20041;-70
2021/07/12 05:47:55;;;;;;;7.10;4.60;;;;;;;27.71;40.71;99561.50;5050177;28;20041;-70
2021/07/12 05:50:22;;;;;;;6.22;4.63;;;;;;;27.67;40.48;99559.78;5050083;28;20126;-70
2021/07/12 05:52:48;;;;;;;4.88;4.35;;;;;;;27.68;40.09;99556.75;5050420;28;20079;-69
2021/07/12 05:55:15;;;;;;;4.43;4.03;;;;;;;27.50;40.51;99553.53;5051398;28;20045;-74
2021/07/12 05:57:41;;;;;;;9.18;4.28;;;;;;;27.56;40.26;99568.47;5050173;28;20128;-72
2021/07/12 06:00:09;;;;;;;5.25;3.80;;;;;;;27.47;39.42;99565.06;5033597;28;20124;-72
2021/07/12 06:02:40;;;;;;;4.20;3.80;;;;;;;27.36;39.82;99562.06;5034540;28;20456;-71
2021/07/12 06:05:06;;;;;;;7.07;3.75;;;;;;;27.14;39.47;99559.84;5049851;28;20063;-71
2021/07/12 06:07:32;;;;;;;7.00;3.97;;;;;;;27.20;40.75;99566.66;5049989;28;20080;-72
2021/07/12 06:09:58;;;;;;;5.75;4.70;;;;;;;27.14;40.22;99560.63;5051476;28;20086;-72
2021/07/12 06:12:23;;;;;;;5.78;3.90;;;;;;;27.08;39.19;99566.66;5049683;28;20115;-70
2021/07/12 06:14:49;;;;;;;3.78;3.20;;;;;;;27.03;37.90;99558.72;5046932;28;20048;-69
2021/07/12 06:17:16;;;;;;;4.95;3.40;;;;;;;27.01;37.90;99558.28;5042459;28;20045;-70
2021/07/12 06:19:42;;;;;;;4.50;4.00;;;;;;;26.98;39.04;99562.47;5043702;28;20218;-70
2021/07/12 06:22:08;;;;;;;3.60;3.30;;;;;;;27.04;37.99;99573.94;5044681;28;20481;-71
2021/07/12 06:24:37;;;;;;;4.18;3.55;;;;;;;26.99;38.58;99566.00;5046008;28;20051;-71
2021/07/12 06:27:03;;;;;;;3.90;3.25;;;;;;;26.96;38.26;99565.53;5024201;28;20072;-70
2021/07/12 06:29:29;;;;;;;6.20;3.88;;;;;;;26.92;39.00;99563.84;5052523;28;20048;-71
2021/07/12 06:31:56;;;;;;;4.07;3.53;;;;;;;27.00;38.26;99567.56;5069101;28;20528;-74
2021/07/12 06:34:23;;;;;;;4.80;3.65;;;;;;;26.99;38.66;99560.56;5052653;28;20387;-68
2021/07/12 06:36:52;;;;;;;4.88;3.72;;;;;;;27.08;39.43;99563.94;5069312;28;20052;-70
2021/07/12 06:39:18;;;;;;;4.25;3.75;;;;;;;27.16;39.15;99557.59;5070125;28;20127;-75
2021/07/12 06:41:44;;;;;;;4.25;3.72;;;;;;;27.19;38.81;99556.91;5051880;28;20193;-72
2021/07/12 06:44:13;;;;;;;5.18;4.07;;;;;;;27.10;39.61;99556.22;5070462;28;20037;-74
2021/07/12 06:46:49;;;;;;;5.18;4.05;;;;;;;27.05;40.18;99554.53;5052511;28;20049;-70
2021/07/12 06:49:17;;;;;;;6.93;4.25;;;;;;;26.97;41.07;99558.16;5020548;28;20069;-69
2021/07/12 06:51:43;;;;;;;5.28;4.03;;;;;;;26.96;39.78;99568.25;5047676;28;20041;-73
2021/07/12 06:54:09;;;;;;;5.97;4.10;;;;;;;27.01;40.41;99559.06;5032308;28;20048;-74
2021/07/12 06:56:35;;;;;;;6.47;3.90;;;;;;;27.00;39.98;99553.97;5017119;28;20047;-70
2021/07/12 06:59:03;;;;;;;7.50;4.00;;;;;;;26.98;40.21;99565.19;5067859;28;20505;-73
2021/07/12 07:01:30;;;;;;;6.25;3.80;;;;;;;26.96;39.76;99564.75;5035048;28;20055;-73
2021/07/12 07:03:56;;;;;;;6.10;4.13;;;;;;;26.99;40.11;99560.56;5070120;28;20127;-70
2021/07/12 07:06:26;;;;;;;6.75;4.18;;;;;;;27.02;40.96;99557.94;5070238;28;20202;-76
2021/07/12 07:08:53;;;;;;;;;;;;;;;27.08;40.01;99550.31;5052104;28;20064;-75
2021/07/12 07:11:19;;;;;;;4.47;4.07;;;;;;;27.14;40.67;99557.91;5052393;28;19950;-71
2021/07/12 07:13:47;;;;;;;4.65;3.90;;;;;;;27.14;41.24;99562.56;5035504;28;20114;-72
2021/07/12 07:16:13;;;;;;;5.68;4.32;;;;;;;27.17;40.54;99554.53;5069591;28;20489;-69
2021/07/12 07:18:39;;;;;;;8.82;4.28;;;;;;;27.22;38.47;99555.44;5069195;28;20044;-71
2021/07/12 07:21:10;;;;;;;4.40;3.45;;;;;;;27.27;38.61;99555.97;5068597;28;20090;-71
2021/07/12 07:23:36;;;;;;;5.80;4.00;;;;;;;27.24;38.25;99567.56;5052011;28;20447;-69
2021/07/12 07:26:03;;;;;;;5.15;3.92;;;;;;;27.17;38.28;99568.13;5052193;28;20501;-68
2021/07/12 07:28:29;;;;;;;6.93;3.90;;;;;;;27.21;38.27;99564.72;5052267;28;20098;-70
2021/07/12 07:30:55;;;;;;;5.65;3.70;;;;;;;27.27;38.24;99566.09;5051865;28;20032;-69
2021/07/12 07:33:25;;;;;;;7.00;3.80;;;;;;;27.36;38.37;99556.63;5054802;28;20040;-70
2021/07/12 07:35:51;;;;;;;7.22;4.15;;;;;;;27.39;37.43;99566.03;5055778;28;20076;-72
2021/07/12 07:38:17;;;;;;;8.85;4.00;;;;;;;27.34;38.13;99558.91;5055496;28;20037;-73
2021/07/12 07:40:43;;;;;;;9.00;4.30;;;;;;;27.35;38.45;99563.19;5073641;28;20037;-72
2021/07/12 07:43:12;;;;;;;5.50;3.65;;;;;;;27.33;38.28;99568.22;5072302;28;20406;-71
2021/07/12 07:45:38;;;;;;;5.97;4.20;;;;;;;27.32;37.88;99566.59;5054546;28;20059;-67
2021/07/12 07:48:04;;;;;;;5.20;3.85;;;;;;;27.37;38.33;99554.69;5071598;28;20131;-66
2021/07/12 07:50:32;;;;;;;5.80;4.65;;;;;;;27.46;38.70;99554.56;5072324;28;20501;-74
2021/07/12 07:52:58;;;;;;;8.15;4.20;;;;;;;27.54;39.50;99562.56;5072159;28;20144;-71
2021/07/12 07:55:24;;;;;;;6.32;4.35;;;;;;;27.55;39.38;99564.16;5055507;28;20033;-67
2021/07/12 07:57:50;;;;;;;5.47;4.75;;;;;;;27.55;39.74;99561.44;5056042;28;20048;-70
2021/07/12 08:00:19;;;;;;;7.88;4.60;;;;;;;27.48;38.81;99549.56;5072237;28;20043;-70
2021/07/12 08:02:45;;;;;;;9.18;4.40;;;;;;;27.51;38.67;99560.53;5072045;28;20044;-67
2021/07/12 08:05:11;;;;;;;7.68;4.53;;;;;;;27.60;38.80;99554.94;5073493;28;20053;-70
2021/07/12 08:07:37;;;;;;;5.82;4.40;;;;;;;27.67;37.76;99546.19;5072050;28;20055;-69
2021/07/12 08:10:08;;;;;;;8.80;4.82;;;;;;;27.69;37.56;99558.31;5038740;28;20036;-70
2021/07/12 08:12:35;;;;;;;4.55;4.10;;;;;;;27.67;37.05;99543.44;5055210;28;20061;-75
2021/07/12 08:15:00;;;;;;;6.20;4.72;;;;;;;27.67;37.00;99552.41;5061246;28;20521;-73
2021/07/12 08:17:26;;;;;;;7.88;4.53;;;;;;;27.67;36.90;99549.69;5069974;28;20036;-73
2021/07/12 08:19:52;;;;;;;9.32;4.20;;;;;;;27.69;36.89;99550.13;5069116;28;20520;-74
2021/07/12 08:22:19;;;;;;;5.05;4.38;;;;;;;27.78;37.49;99552.72;5069423;28;20036;-73
2021/07/12 08:24:45;;;;;;;10.50;5.00;;;;;;;27.83;37.96;99542.38;5069346;28;20044;-73
2021/07/12 08:27:11;;;;;;;5.32;4.13;;;;;;;27.94;37.61;99536.41;5052796;28;20044;-72
2021/07/12 08:29:37;;;;;;;8.00;4.50;;;;;;;27.92;36.33;99544.16;5070969;28;20044;-72
2021/07/12 08:32:04;;;;;;;7.47;4.78;;;;;;;27.80;36.17;99543.09;5021192;28;20044;-72
2021/07/12 08:34:32;;;;;;;5.30;4.38;;;;;;;27.80;36.99;99553.19;5053458;28;20043;-72
2021/07/12 08:36:58;;;;;;;6.97;4.47;;;;;;;27.81;36.15;99547.38;5071247;28;20048;-72
2021/07/12 08:39:24;;;;;;;8.18;5.03;;;;;;;27.77;36.87;99538.31;5073157;28;20052;-73
2021/07/12 08:41:50;;;;;;;8.88;4.78;;;;;;;27.82;37.68;99540.78;5070832;28;20497;-72
2021/07/12 08:44:15;;;;;;;7.25;4.65;;;;;;;27.84;36.83;99535.78;5070740;28;20043;-71
2021/07/12 08:46:41;;;;;;;7.43;4.43;;;;;;;27.91;37.09;99540.63;5054345;28;20055;-73
2021/07/12 08:49:07;;;;;;;6.13;4.65;;;;;;;27.92;36.77;99527.81;5070587;28;20044;-72
2021/07/12 08:51:33;;;;;;;7.60;4.50;;;;;;;28.01;36.81;99523.75;5072194;28;20060;-72
2021/07/12 08:53:59;;;;;;;6.53;4.63;;;;;;;28.08;37.69;99526.66;5070007;28;20046;-74
2021/07/12 08:56:27;;;;;;;7.20;4.80;;;;;;;28.16;36.59;99524.13;5069726;28;20421;-74
2021/07/12 08:58:54;;;;;;;5.05;4.55;;;;;;;28.23;35.93;99527.00;5067880;28;20047;-70
2021/07/12 09:01:20;;;;;;;5.57;4.07;;;;;;;28.31;34.97;99532.28;5067303;28;20490;-74
2021/07/12 09:03:51;;;;;;;5.53;4.20;;;;;;;28.28;34.03;99513.91;5049926;28;20049;-74
2021/07/12 09:06:22;;;;;;;8.55;4.07;;;;;;;28.18;34.31;99516.38;5034275;28;20056;-73
2021/07/12 09:08:58;;;;;;;6.30;4.28;;;;;;;28.17;35.42;99525.69;5066176;28;20051;-69
2021/07/12 09:11:43;;;;;;;11.70;4.75;;;;;;;28.17;35.11;99523.75;5018449;28;20063;-72
2021/07/12 09:14:11;;;;;;;5.47;4.18;;;;;;;28.21;35.47;99515.69;5065512;28;20044;-70
2021/07/12 09:16:49;;;;;;;7.90;4.25;;;;;;;28.21;34.30;99519.19;5066699;28;20044;-71
2021/07/12 09:19:29;;;;;;;7.13;4.18;;;;;;;28.12;33.85;99509.59;5067484;28;20075;-69
2021/07/12 09:21:58;;;;;;;13.73;4.88;;;;;;;28.10;33.43;99520.88;5065936;28;20488;-69
2021/07/12 09:24:33;;;;;;;6.22;3.90;;;;;;;28.14;34.52;99512.78;5067699;28;20162;-70
2021/07/12 09:27:05;;;;;;;4.88;4.07;;;;;;;28.20;33.55;99508.63;5066201;28;20131;-72
2021/07/12 09:29:45;;;;;;;5.25;4.25;;;;;;;28.18;33.87;99514.47;5064213;28;20531;-72
2021/07/12 09:32:14;;;;;;;5.97;3.95;;;;;;;28.22;34.13;99515.31;5066668;28;20086;-73
2021/07/12 09:34:43;;;;;;;4.55;3.90;;;;;;;28.32;33.97;99508.53;5065607;28;20134;-74
2021/07/12 09:37:12;;;;;;;14.48;4.43;;;;;;;28.41;34.25;99509.16;5065623;28;20059;-70
2021/07/12 09:39:43;;;;;;;7.60;4.55;;;;;;;28.41;33.95;99505.63;5068172;28;20040;-77
2021/07/12 09:42:12;;;;;;;5.57;4.65;;;;;;;28.33;34.25;99517.53;5046302;28;20048;-76
2021/07/12 09:44:41;;;;;;;11.57;4.63;;;;;;;28.26;34.03;99507.22;5028944;28;20037;-73
2021/07/12 09:47:10;;;;;;;;;;;;;;;28.31;33.41;99512.41;5046914;28;20509;-71
2021/07/12 09:49:37;;;;;;;6.43;4.77;;;;;;;28.32;32.49;99511.25;5030173;28;20425;-73
2021/07/12 09:52:06;;;;;;;7.75;4.20;;;;;;;28.39;33.35;99505.22;5046455;28;20045;-73
2021/07/12 09:54:35;;;;;;;5.20;3.97;;;;;;;28.38;31.37;99515.31;5045564;28;20446;-73
2021/07/12 09:57:05;;;;;;;4.63;4.03;;;;;;;28.46;31.45;99519.03;5047346;28;20078;-73
2021/07/12 09:59:32;;;;;;;5.20;3.50;;;;;;;28.50;31.13;99517.97;5033092;28;20045;-73
2021/07/12 10:01:59;;;;;;;3.72;3.35;;;;;;;28.56;29.88;99509.50;5050074;28;20170;-72
2021/07/12 10:04:26;;;;;;;4.25;3.60;;;;;;;28.61;30.04;99515.47;5064528;28;20047;-72
2021/07/12 10:06:53;;;;;;;5.65;3.75;;;;;;;28.62;30.34;99503.44;5064917;28;20043;-74
2021/07/12 10:09:23;;;;;;;5.53;4.10;;;;;;;28.66;31.23;99507.03;5048388;28;20074;-75
2021/07/12 10:11:54;;;;;;;6.30;3.67;;;;;;;28.66;31.95;99503.50;5047962;28;20063;-73
2021/07/12 10:14:23;;;;;;;4.28;3.60;;;;;;;28.66;31.29;99500.78;5063478;28;20076;-72
2021/07/12 10:16:50;;;;;;;3.75;3.45;;;;;;;28.67;30.04;99503.13;5067754;28;20133;-72
2021/07/12 10:19:16;;;;;;;11.02;3.80;;;;;;;28.66;30.92;99495.34;5048082;28;20048;-72
2021/07/12 10:21:51;;;;;;;4.97;4.00;;;;;;;28.68;31.35;99493.06;5065156;28;20247;-72
2021/07/12 10:24:21;;;;;;;3.72;3.42;;;;;;;28.61;31.41;99496.38;5049233;28;20053;-73
2021/07/12 10:26:51;;;;;;;4.82;4.40;;;;;;;28.63;31.00;99496.03;5032281;28;20135;-71
2021/07/12 10:29:23;;;;;;;5.75;4.13;;;;;;;28.64;31.12;99487.50;5047027;28;20071;-71
2021/07/12 10:31:55;;;;;;;5.35;4.45;;;;;;;28.73;31.93;99490.03;5048219;28;20064;-71
2021/07/12 10:34:41;;;;;;;8.35;4.72;;;;;;;28.69;32.29;99486.44;5066797;28;20040;-71
2021/07/12 10:37:25;;;;;;;5.05;4.53;;;;;;;28.71;32.32;99484.16;5066049;28;20048;-69
2021/07/12 10:40:12;;;;;;;6.95;4.40;;;;;;;28.70;32.37;99472.44;5066144;28;20078;-72
2021/07/12 10:42:45;;;;;;;9.65;4.82;;;;;;;28.75;31.73;99468.66;5068168;28;20600;-72
2021/07/12 10:45:14;;;;;;;5.70;4.45;;;;;;;28.81;32.17;99471.88;5067827;28;20045;-72
2021/07/12 10:48:04;;;;;;;6.28;4.25;;;;;;;28.84;31.74;99460.25;5067068;28;20040;-72
2021/07/12 10:50:50;;;;;;;4.85;4.35;;;;;;;28.92;32.63;99470.97;5064928;28;20472;-71
2021/07/12 10:53:16;;;;;;;6.18;5.28;;;;;;;28.95;32.90;99459.31;5065461;28;20055;-72
2021/07/12 10:56:05;;;;;;;8.18;4.90;;;;;;;29.00;33.05;99466.41;5065117;28;20044;-72
2021/07/12 10:58:31;;;;;;;5.37;4.60;;;;;;;28.94;32.66;99463.22;5068272;28;20082;-71
2021/07/12 11:01:07;;;;;;;5.85;4.75;;;;;;;28.88;32.61;99464.63;5067659;28;20519;-72
2021/07/12 11:03:40;;;;;;;5.97;4.45;;;;;;;28.95;32.86;99466.72;5067154;28;20040;-73
2021/07/12 11:06:10;;;;;;;7.60;4.68;;;;;;;28.94;32.33;99471.41;5067726;28;20068;-71
2021/07/12 11:08:42;;;;;;;6.80;4.80;;;;;;;28.92;32.58;99460.03;5071173;28;20037;-72
2021/07/12 11:11:10;;;;;;;5.53;4.22;;;;;;;28.91;32.54;99463.91;5070845;28;20066;-71
2021/07/12 11:13:56;;;;;;;6.18;4.43;;;;;;;28.99;32.99;99465.63;5068900;28;20044;-74
2021/07/12 11:16:24;;;;;;;6.80;4.97;;;;;;;28.98;32.16;99449.63;5053369;28;20417;-69
2021/07/12 11:18:52;;;;;;;6.15;4.50;;;;;;;29.03;31.99;99467.66;5070307;28;20029;-71
2021/07/12 11:21:30;;;;;;;9.00;4.80;;;;;;;28.98;32.63;99460.53;5036719;28;20135;-71
2021/07/12 11:24:07;;;;;;;5.43;4.93;;;;;;;28.97;32.57;99461.69;5052944;28;20041;-69
2021/07/12 11:26:34;;;;;;;8.32;5.18;;;;;;;28.93;32.86;99466.28;5069998;28;20049;-70
2021/07/12 11:29:02;;;;;;;13.70;5.47;;;;;;;28.97;33.09;99453.50;5068223;28;20329;-71
2021/07/12 11:32:12;;;;;;;7.32;5.30;;;;;;;29.04;33.14;99456.41;5069296;28;20055;-70
2021/07/12 11:34:52;;;;;;;6.50;4.97;;;;;;;29.01;32.67;99451.66;5031521;28;20684;-68
2021/07/12 11:37:23;;;;;;;5.65;4.70;;;;;;;29.01;32.35;99454.38;5050050;28;20089;-69
2021/07/12 11:39:57;;;;;;;6.35;5.00;;;;;;;29.06;32.88;99458.75;5073724;28;20040;-69
2021/07/12 11:42:38;;;;;;;7.50;4.38;;;;;;;29.08;32.50;99462.72;5022910;28;20491;-68
2021/07/12 11:45:11;;;;;;;5.00;4.50;;;;;;;29.06;31.29;99454.13;5070491;28;20131;-68
2021/07/12 11:47:39;;;;;;;6.57;4.53;;;;;;;29.06;31.72;99456.84;5070218;28;20598;-70
2021/07/12 11:50:07;;;;;;;6.43;4.43;;;;;;;29.11;32.03;99458.47;5036396;28;20053;-69